createdAt,value
2023-04-19T00:02:54.371Z,99.90
2023-04-19T00:05:59.471Z,99.90
2023-04-19T00:09:01.315Z,99.90
2023-04-19T00:12:04.441Z,99.90
2023-04-19T00:15:06.879Z,99.90
2023-04-19T00:18:08.754Z,99.90
2023-04-19T00:21:11.757Z,99.90
2023-04-19T00:24:13.809Z,99.90
2023-04-19T00:27:16.070Z,99.90
2023-04-19T00:30:17.924Z,99.90
2023-04-19T00:33:19.879Z,99.90
2023-04-19T00:36:21.626Z,99.90
2023-04-19T00:39:23.864Z,99.90
2023-04-19T00:42:26.207Z,99.90
2023-04-19T00:45:28.094Z,99.90
2023-04-19T00:48:31.339Z,99.90
2023-04-19T00:51:33.994Z,99.90
2023-04-19T00:54:37.104Z,99.90
2023-04-19T00:57:39.154Z,99.90
2023-04-19T01:00:41.418Z,99.90
2023-04-19T01:03:43.375Z,99.90
2023-04-19T01:06:45.402Z,99.90
2023-04-19T01:09:47.241Z,99.90
2023-04-19T01:12:49.108Z,99.90
2023-04-19T01:15:51.801Z,99.90
2023-04-19T01:18:53.823Z,99.90
2023-04-19T01:21:56.463Z,99.90
2023-04-19T01:24:58.833Z,99.90
2023-04-19T01:28:00.802Z,99.90
2023-04-19T01:31:02.647Z,99.90
2023-04-19T01:34:04.480Z,99.90
2023-04-19T01:37:07.448Z,99.90
2023-04-19T01:40:09.721Z,99.90
2023-04-19T01:43:16.674Z,99.90
2023-04-19T01:46:18.554Z,99.90
2023-04-19T01:49:24.285Z,99.90
2023-04-19T01:52:29.170Z,99.90
2023-04-19T01:55:31.222Z,99.90
2023-04-19T01:58:33.236Z,99.90
2023-04-19T02:01:35.124Z,99.90
2023-04-19T02:04:37.506Z,99.90
2023-04-19T02:07:39.398Z,99.90
2023-04-19T02:10:41.227Z,99.90
2023-04-19T02:13:43.531Z,99.90
2023-04-19T02:16:45.352Z,99.90
2023-04-19T02:19:47.285Z,99.90
2023-04-19T02:22:49.128Z,99.90
2023-04-19T02:25:51.542Z,99.90
2023-04-19T02:28:53.689Z,99.90
2023-04-19T02:31:55.654Z,99.90
2023-04-19T02:34:57.551Z,99.90
2023-04-19T02:38:00.805Z,99.90
2023-04-19T02:41:04.437Z,99.90
2023-04-19T02:44:06.504Z,99.90
2023-04-19T02:47:08.354Z,99.90
2023-04-19T02:50:11.938Z,99.90
2023-04-19T02:53:13.935Z,99.90
2023-04-19T02:56:16.523Z,99.90
2023-04-19T02:59:21.229Z,99.90
2023-04-19T03:02:23.109Z,99.90
2023-04-19T03:05:25.010Z,99.90
2023-04-19T03:08:26.878Z,99.90
2023-04-19T03:11:28.873Z,99.90
2023-04-19T03:14:30.935Z,99.90
2023-04-19T03:17:32.827Z,99.90
2023-04-19T03:20:34.930Z,99.90
2023-04-19T03:23:37.923Z,99.90
2023-04-19T03:26:39.973Z,99.90
2023-04-19T03:29:41.888Z,99.90
2023-04-19T03:32:44.120Z,99.90
2023-04-19T03:35:46.121Z,99.90
2023-04-19T03:38:47.971Z,99.90
2023-04-19T03:41:49.811Z,99.90
2023-04-19T03:44:51.750Z,99.90
2023-04-19T03:47:53.665Z,99.90
2023-04-19T03:50:55.796Z,99.90
2023-04-19T03:53:57.623Z,99.90
2023-04-19T03:57:00.911Z,99.90
2023-04-19T04:00:07.327Z,99.90
2023-04-19T04:03:09.524Z,99.90
2023-04-19T04:06:11.531Z,99.90
2023-04-19T04:09:13.373Z,99.90
2023-04-19T04:12:15.514Z,99.90
2023-04-19T04:15:17.504Z,99.90
2023-04-19T04:18:19.315Z,99.90
2023-04-19T04:21:21.570Z,99.90
2023-04-19T04:24:23.686Z,99.90
2023-04-19T04:27:25.570Z,99.90
2023-04-19T04:30:29.069Z,99.90
2023-04-19T04:33:32.608Z,99.90
2023-04-19T04:36:35.420Z,99.90
2023-04-19T04:39:39.415Z,99.90
2023-04-19T04:42:41.486Z,99.90
2023-04-19T04:45:44.667Z,99.90
2023-04-19T04:48:46.710Z,99.90
2023-04-19T04:51:48.540Z,99.90
2023-04-19T04:54:50.909Z,99.90
2023-04-19T04:57:52.767Z,99.90
2023-04-19T05:00:54.925Z,99.90
2023-04-19T05:03:56.852Z,99.90
2023-04-19T05:06:58.723Z,99.90
2023-04-19T05:10:00.514Z,99.90
2023-04-19T05:13:02.261Z,99.90
2023-04-19T05:16:04.252Z,99.90
2023-04-19T05:19:06.062Z,99.90
2023-04-19T05:22:07.964Z,99.90
2023-04-19T05:25:10.677Z,99.90
2023-04-19T05:28:12.537Z,99.90
2023-04-19T05:31:14.655Z,99.90
2023-04-19T05:34:17.851Z,99.90
2023-04-19T05:37:20.930Z,99.90
2023-04-19T05:40:24.334Z,99.90
2023-04-19T05:43:26.363Z,99.90
2023-04-19T05:46:28.237Z,99.90
2023-04-19T05:49:30.152Z,99.90
2023-04-19T05:52:31.992Z,99.90
2023-04-19T05:55:33.842Z,99.90
2023-04-19T05:58:35.904Z,99.90
2023-04-19T06:01:38.068Z,99.90
2023-04-19T06:04:40.144Z,99.90
2023-04-19T06:07:47.094Z,99.90
2023-04-19T06:11:02.100Z,99.90
2023-04-19T06:14:07.091Z,99.90
2023-04-19T06:17:08.888Z,99.90
2023-04-19T06:20:10.904Z,99.90
2023-04-19T06:23:13.857Z,99.90
2023-04-19T06:26:15.692Z,99.90
2023-04-19T06:29:20.355Z,99.90
2023-04-19T06:32:22.229Z,99.90
2023-04-19T06:35:25.456Z,99.90
2023-04-19T06:38:27.202Z,99.90
2023-04-19T06:41:29.052Z,99.90
2023-04-19T06:44:31.105Z,99.90
2023-04-19T06:47:35.016Z,99.90
2023-04-19T06:50:37.806Z,99.90
2023-04-19T06:53:39.719Z,99.90
2023-04-19T06:56:49.924Z,99.90
2023-04-19T06:59:54.084Z,99.90
2023-04-19T07:02:56.305Z,99.90
2023-04-19T07:05:58.338Z,99.90
2023-04-19T07:09:00.383Z,99.90
2023-04-19T07:12:02.517Z,99.90
2023-04-19T07:15:04.819Z,99.90
2023-04-19T07:18:07.049Z,99.90
2023-04-19T07:21:09.172Z,99.90
2023-04-19T07:24:11.052Z,99.90
2023-04-19T07:27:14.357Z,99.90
2023-04-19T07:30:16.225Z,99.90
2023-04-19T07:33:17.957Z,99.90
2023-04-19T07:36:19.970Z,99.90
2023-04-19T07:39:21.889Z,99.90
2023-04-19T07:42:24.587Z,99.90
2023-04-19T07:45:27.062Z,99.90
2023-04-19T07:48:29.130Z,99.90
2023-04-19T07:51:31.601Z,99.90
2023-04-19T07:54:33.415Z,99.90
2023-04-19T07:57:35.882Z,99.90
2023-04-19T08:00:38.026Z,99.90
2023-04-19T08:03:40.148Z,99.90
2023-04-19T08:06:42.239Z,99.90
2023-04-19T08:09:44.217Z,99.90
2023-04-19T08:12:57.294Z,99.90
2023-04-19T08:19:11.848Z,99.90
2023-04-19T08:22:13.770Z,99.90
2023-04-19T08:25:16.823Z,99.90
2023-04-19T08:28:19.392Z,99.90
2023-04-19T08:31:21.726Z,99.90
2023-04-19T08:34:23.621Z,99.90
2023-04-19T08:37:25.579Z,99.90
2023-04-19T08:40:27.544Z,99.90
2023-04-19T08:43:33.669Z,99.90
2023-04-19T08:46:35.797Z,99.90
2023-04-19T08:49:42.621Z,99.90
2023-04-19T08:52:54.905Z,99.90
2023-04-19T09:02:13.298Z,99.90
2023-04-19T09:05:17.001Z,99.90
2023-04-19T09:08:28.724Z,99.90
2023-04-19T09:11:39.523Z,98.40
2023-04-19T09:14:57.862Z,98.20
2023-04-19T09:18:10.086Z,98.60
2023-04-19T09:21:28.189Z,98.10
2023-04-19T09:27:44.064Z,97.20
2023-04-19T09:30:58.674Z,99.40
2023-04-19T09:34:18.955Z,99.00
2023-04-19T09:37:39.220Z,96.50
2023-04-19T09:40:44.636Z,99.30
2023-04-19T09:44:05.414Z,98.50
2023-04-19T09:47:26.403Z,98.10
2023-04-19T09:50:28.839Z,95.60
2023-04-19T09:53:35.449Z,99.00
2023-04-19T09:56:38.189Z,97.40
2023-04-19T09:59:40.115Z,97.70
2023-04-19T10:02:43.797Z,97.90
2023-04-19T10:05:46.751Z,97.10
2023-04-19T10:08:51.264Z,97.20
2023-04-19T10:11:58.146Z,96.80
2023-04-19T10:15:07.387Z,96.70
2023-04-19T10:18:10.017Z,96.50
2023-04-19T10:21:12.940Z,96.40
2023-04-19T10:24:16.392Z,96.30
2023-04-19T10:27:25.661Z,95.90
2023-04-19T10:30:27.542Z,94.00
2023-04-19T10:33:31.979Z,95.40
2023-04-19T10:36:33.822Z,94.70
2023-04-19T10:39:45.697Z,95.20
2023-04-19T10:43:12.596Z,92.40
2023-04-19T10:46:40.103Z,93.70
2023-04-19T10:49:46.603Z,92.90
2023-04-19T10:52:48.461Z,94.30
2023-04-19T10:55:51.199Z,95.90
2023-04-19T10:59:07.898Z,95.30
2023-04-19T11:02:28.698Z,92.00
2023-04-19T11:05:30.708Z,91.00
2023-04-19T11:08:32.583Z,94.20
2023-04-19T11:11:37.501Z,94.10
2023-04-19T11:14:44.814Z,93.00
2023-04-19T11:18:00.801Z,92.30
2023-04-19T11:21:17.327Z,93.00
2023-04-19T11:24:20.709Z,93.60
2023-04-19T11:27:22.725Z,95.10
2023-04-19T11:30:31.216Z,94.70
2023-04-19T11:33:37.107Z,92.40
2023-04-19T11:36:49.550Z,92.70
2023-04-19T11:39:51.388Z,91.30
2023-04-19T11:43:02.136Z,94.30
2023-04-19T11:46:12.111Z,92.10
2023-04-19T11:49:26.662Z,92.50
2023-04-19T11:52:28.540Z,92.10
2023-04-19T11:55:33.492Z,93.30
2023-04-19T11:58:48.564Z,92.00
2023-04-19T12:01:57.374Z,90.90
2023-04-19T12:05:08.904Z,91.40
2023-04-19T12:08:11.881Z,92.30
2023-04-19T12:11:14.539Z,94.40
2023-04-19T12:14:19.872Z,94.50
2023-04-19T12:17:21.936Z,93.40
2023-04-19T12:20:34.939Z,93.20
2023-04-19T12:23:36.802Z,90.10
2023-04-19T12:26:57.190Z,92.80
2023-04-19T12:29:59.052Z,90.50
2023-04-19T12:33:01.033Z,93.90
2023-04-19T12:36:02.996Z,93.80
2023-04-19T12:39:04.834Z,93.10
2023-04-19T12:42:06.614Z,93.10
2023-04-19T12:45:08.948Z,93.20
2023-04-19T12:48:10.888Z,93.10
2023-04-19T12:51:12.696Z,93.70
2023-04-19T12:54:15.605Z,93.70
2023-04-19T12:57:17.449Z,92.90
2023-04-19T13:00:19.428Z,92.70
2023-04-19T13:03:21.615Z,92.00
2023-04-19T13:06:23.543Z,91.10
2023-04-19T13:09:27.705Z,91.10
2023-04-19T13:12:29.494Z,89.50
2023-04-19T13:15:31.410Z,90.10
2023-04-19T13:18:33.280Z,89.50
2023-04-19T13:21:35.102Z,90.50
2023-04-19T13:24:36.981Z,90.80
2023-04-19T13:27:38.957Z,91.10
2023-04-19T13:30:41.075Z,90.80
2023-04-19T13:33:43.018Z,90.70
2023-04-19T13:36:44.790Z,90.90
2023-04-19T13:39:49.499Z,90.70
2023-04-19T13:42:51.352Z,90.80
2023-04-19T13:45:53.097Z,90.90
2023-04-19T13:48:54.912Z,90.70
2023-04-19T13:51:56.755Z,90.70
2023-04-19T13:54:58.608Z,90.80
2023-04-19T13:58:00.891Z,90.90
2023-04-19T14:01:03.354Z,90.90
2023-04-19T14:04:05.516Z,91.40
2023-04-19T14:07:07.535Z,91.70
2023-04-19T14:10:09.984Z,91.90
2023-04-19T14:13:12.045Z,91.60
2023-04-19T14:16:15.075Z,92.10
2023-04-19T14:19:17.184Z,91.60
2023-04-19T14:22:19.202Z,91.20
2023-04-19T14:25:21.379Z,90.70
2023-04-19T14:28:23.322Z,90.50
2023-04-19T14:31:27.648Z,90.60
2023-04-19T14:34:29.475Z,90.50
2023-04-19T14:37:31.363Z,90.00
2023-04-19T14:40:33.398Z,90.30
2023-04-19T14:43:35.246Z,90.50
2023-04-19T14:46:37.091Z,90.40
2023-04-19T14:49:38.862Z,90.20
2023-04-19T14:52:41.714Z,90.20
2023-04-19T14:55:44.017Z,89.60
2023-04-19T14:58:45.797Z,90.30
2023-04-19T15:01:47.955Z,90.40
2023-04-19T15:04:50.084Z,90.70
2023-04-19T15:07:52.160Z,91.00
2023-04-19T15:10:53.973Z,90.90
2023-04-19T15:13:56.037Z,91.00
2023-04-19T15:16:58.208Z,90.80
2023-04-19T15:20:00.473Z,90.80
2023-04-19T15:23:02.390Z,90.70
2023-04-19T15:26:04.457Z,90.50
2023-04-19T15:29:06.590Z,90.00
2023-04-19T15:32:08.563Z,90.00
2023-04-19T15:35:10.753Z,90.20
2023-04-19T15:38:12.593Z,89.10
2023-04-19T15:41:14.506Z,89.20
2023-04-19T15:44:16.335Z,88.90
2023-04-19T15:47:18.310Z,89.50
2023-04-19T15:50:20.139Z,90.10
2023-04-19T15:53:22.113Z,90.50
2023-04-19T15:56:24.162Z,90.70
2023-04-19T15:59:25.994Z,90.60
2023-04-19T16:02:28.179Z,90.70
2023-04-19T16:05:30.233Z,91.40
2023-04-19T16:08:31.992Z,90.80
2023-04-19T16:11:33.897Z,90.60
2023-04-19T16:15:38.579Z,90.20
2023-04-19T16:18:40.874Z,85.60
2023-04-19T16:21:42.718Z,90.70
2023-04-19T16:24:46.770Z,90.60
2023-04-19T16:27:48.723Z,90.90
2023-04-19T16:30:50.970Z,91.00
2023-04-19T16:33:52.720Z,90.80
2023-04-19T16:36:54.708Z,90.30
2023-04-19T16:39:56.772Z,90.10
2023-04-19T16:42:58.715Z,90.10
2023-04-19T16:46:00.830Z,90.20
2023-04-19T16:49:03.160Z,90.10
2023-04-19T16:52:05.072Z,90.20
2023-04-19T16:55:07.703Z,90.60
2023-04-19T16:58:09.561Z,90.80
2023-04-19T17:01:11.692Z,91.00
2023-04-19T17:04:13.890Z,90.80
2023-04-19T17:07:15.939Z,90.70
2023-04-19T17:10:17.832Z,90.60
2023-04-19T17:13:19.749Z,90.50
2023-04-19T17:16:21.958Z,90.40
2023-04-19T17:19:24.093Z,90.50
2023-04-19T17:22:25.972Z,90.60
2023-04-19T17:25:27.834Z,90.50
2023-04-19T17:28:29.618Z,90.50
2023-04-19T17:31:31.485Z,90.80
2023-04-19T17:34:36.054Z,90.80
2023-04-19T17:37:38.878Z,90.70
2023-04-19T17:40:40.692Z,90.70
2023-04-19T17:43:43.506Z,90.70
2023-04-19T17:46:45.406Z,91.00
2023-04-19T17:49:47.942Z,91.30
2023-04-19T17:52:49.973Z,91.00
2023-04-19T17:55:51.809Z,91.40
2023-04-19T17:58:53.666Z,91.40
2023-04-19T18:01:57.201Z,91.30
2023-04-19T18:04:59.053Z,91.00
2023-04-19T18:08:01.050Z,91.10
2023-04-19T18:11:02.901Z,91.00
2023-04-19T18:14:05.273Z,91.00
2023-04-19T18:17:07.326Z,91.10
2023-04-19T18:20:11.292Z,91.00
2023-04-19T18:23:15.113Z,90.70
2023-04-19T18:26:17.048Z,90.90
2023-04-19T18:29:21.013Z,90.90
2023-04-19T18:32:27.275Z,91.30
2023-04-19T18:35:29.452Z,91.00
2023-04-19T18:38:31.571Z,91.10
2023-04-19T18:41:33.579Z,91.00
2023-04-19T18:44:52.170Z,91.20
2023-04-19T18:47:55.983Z,91.20
2023-04-19T18:50:59.412Z,91.30
2023-04-19T18:54:01.671Z,91.30
2023-04-19T19:00:12.381Z,91.40
2023-04-19T19:03:38.169Z,91.40
2023-04-19T19:06:36.489Z,91.50
2023-04-19T19:09:38.524Z,91.50
2023-04-19T19:12:41.112Z,91.50
2023-04-19T19:15:43.731Z,91.70
2023-04-19T19:18:45.585Z,91.70
2023-04-19T19:21:47.488Z,91.80
2023-04-19T19:24:50.092Z,91.90
2023-04-19T19:31:00.483Z,91.90
2023-04-19T19:34:14.677Z,92.00
2023-04-19T19:37:24.994Z,92.10
2023-04-19T19:40:31.152Z,92.00
2023-04-19T19:43:34.846Z,91.90
2023-04-19T19:46:38.538Z,92.00
2023-04-19T19:50:00.450Z,91.80
2023-04-19T19:53:03.673Z,92.10
2023-04-19T19:56:12.899Z,92.10
2023-04-19T19:59:16.730Z,92.20
2023-04-19T20:02:19.227Z,92.20
2023-04-19T20:05:21.548Z,92.30
2023-04-19T20:08:24.495Z,92.30
2023-04-19T20:11:26.528Z,92.20
2023-04-19T20:14:28.675Z,92.30
2023-04-19T20:17:30.566Z,92.90
2023-04-19T20:20:32.853Z,92.80
2023-04-19T20:23:40.820Z,92.80
2023-04-19T20:26:42.649Z,92.50
2023-04-19T20:29:44.665Z,92.90
2023-04-19T20:32:46.517Z,92.80
2023-04-19T20:35:48.668Z,92.90
2023-04-19T20:38:51.119Z,92.90
2023-04-19T20:41:53.955Z,92.90
2023-04-19T20:44:56.080Z,93.00
2023-04-19T20:47:58.634Z,93.10
2023-04-19T20:51:00.753Z,93.40
2023-04-19T20:54:02.724Z,93.50
2023-04-19T20:57:05.148Z,93.80
2023-04-19T21:00:08.982Z,93.90
2023-04-19T21:03:11.143Z,94.10
2023-04-19T21:06:13.117Z,94.30
2023-04-19T21:09:15.112Z,94.50
2023-04-19T21:12:17.672Z,94.70
2023-04-19T21:15:19.702Z,94.90
2023-04-19T21:18:22.411Z,95.00
2023-04-19T21:21:24.214Z,95.00
2023-04-19T21:24:26.401Z,95.00
2023-04-19T21:27:30.287Z,95.00
2023-04-19T21:30:32.243Z,95.00
2023-04-19T21:33:34.035Z,95.00
2023-04-19T21:36:35.758Z,95.10
2023-04-19T21:39:37.531Z,95.20
2023-04-19T21:42:39.364Z,95.40
2023-04-19T21:45:41.187Z,95.50
2023-04-19T21:48:43.006Z,95.60
2023-04-19T21:51:45.432Z,95.70
2023-04-19T21:54:48.676Z,95.60
2023-04-19T21:57:51.241Z,95.60
2023-04-19T22:00:53.724Z,95.60
2023-04-19T22:03:57.168Z,95.50
2023-04-19T22:07:03.092Z,95.60
2023-04-19T22:10:07.497Z,95.50
2023-04-19T22:13:09.621Z,95.40
2023-04-19T22:16:11.905Z,95.40
2023-04-19T22:19:14.286Z,95.30
2023-04-19T22:22:16.126Z,95.30
2023-04-19T22:25:17.974Z,95.30
2023-04-19T22:28:19.890Z,95.30
2023-04-19T22:31:21.846Z,95.20
2023-04-19T22:34:23.731Z,95.10
2023-04-19T22:37:25.744Z,94.90
2023-04-19T22:40:27.568Z,94.90
2023-04-19T22:43:29.714Z,94.90
2023-04-19T22:46:32.987Z,94.90
2023-04-19T22:49:35.200Z,95.00
2023-04-19T22:52:37.410Z,95.10
2023-04-19T22:55:40.120Z,95.10
2023-04-19T22:58:42.049Z,95.10
2023-04-19T23:01:43.934Z,95.30
2023-04-19T23:04:48.617Z,95.40
2023-04-19T23:07:50.892Z,95.50
2023-04-19T23:10:54.350Z,95.40
2023-04-19T23:13:56.365Z,95.40
2023-04-19T23:16:58.248Z,95.50
2023-04-19T23:20:00.042Z,95.50
2023-04-19T23:23:01.864Z,95.70
2023-04-19T23:26:03.719Z,95.70
2023-04-19T23:29:05.686Z,95.70
2023-04-19T23:32:07.684Z,95.80
2023-04-19T23:35:09.619Z,95.70
2023-04-19T23:38:11.709Z,95.70
2023-04-19T23:41:13.522Z,95.70
2023-04-19T23:44:16.492Z,95.80
2023-04-19T23:47:18.443Z,95.80
2023-04-19T23:50:20.344Z,95.90
2023-04-19T23:53:22.195Z,95.90
2023-04-19T23:56:24.382Z,95.90
2023-04-19T23:59:29.154Z,96.00
